sensor_id;sensor_type;location;lat;lon;timestamp;P1;durP1;ratioP1;P2;durP2;ratioP2
35993;SDS011;22066;54.274;18.578;2023-05-27T00:02:22;15.10;;;5.05;;
35993;SDS011;22066;54.274;18.578;2023-05-27T00:04:48;15.27;;;4.75;;
35993;SDS011;22066;54.274;18.578;2023-05-27T00:07:14;12.63;;;4.47;;
35993;SDS011;22066;54.274;18.578;2023-05-27T00:09:40;14.52;;;4.65;;
35993;SDS011;22066;54.274;18.578;2023-05-27T00:12:06;11.43;;;4.57;;
35993;SDS011;22066;54.274;18.578;2023-05-27T00:14:32;11.48;;;4.10;;
35993;SDS011;22066;54.274;18.578;2023-05-27T00:16:59;10.73;;;3.75;;
35993;SDS011;22066;54.274;18.578;2023-05-27T00:19:26;12.30;;;3.85;;
35993;SDS011;22066;54.274;18.578;2023-05-27T00:21:54;12.40;;;4.50;;
35993;SDS011;22066;54.274;18.578;2023-05-27T00:24:20;17.88;;;4.90;;
35993;SDS011;22066;54.274;18.578;2023-05-27T00:26:47;12.02;;;4.32;;
35993;SDS011;22066;54.274;18.578;2023-05-27T00:29:13;18.35;;;4.40;;
35993;SDS011;22066;54.274;18.578;2023-05-27T00:31:39;13.27;;;4.55;;
35993;SDS011;22066;54.274;18.578;2023-05-27T00:34:05;14.88;;;5.70;;
35993;SDS011;22066;54.274;18.578;2023-05-27T00:36:31;15.05;;;5.47;;
35993;SDS011;22066;54.274;18.578;2023-05-27T00:38:57;15.20;;;4.70;;
35993;SDS011;22066;54.274;18.578;2023-05-27T00:41:23;16.00;;;4.75;;
35993;SDS011;22066;54.274;18.578;2023-05-27T00:43:51;18.88;;;5.18;;
35993;SDS011;22066;54.274;18.578;2023-05-27T00:46:17;16.63;;;5.32;;
35993;SDS011;22066;54.274;18.578;2023-05-27T00:48:44;10.60;;;4.25;;
35993;SDS011;22066;54.274;18.578;2023-05-27T00:51:10;16.27;;;5.18;;
35993;SDS011;22066;54.274;18.578;2023-05-27T00:53:38;16.45;;;5.22;;
35993;SDS011;22066;54.274;18.578;2023-05-27T00:56:08;14.63;;;4.97;;
35993;SDS011;22066;54.274;18.578;2023-05-27T00:58:37;13.93;;;4.47;;
35993;SDS011;22066;54.274;18.578;2023-05-27T01:01:03;22.50;;;5.43;;
35993;SDS011;22066;54.274;18.578;2023-05-27T01:03:30;13.93;;;4.82;;
35993;SDS011;22066;54.274;18.578;2023-05-27T01:06:08;12.65;;;5.00;;
35993;SDS011;22066;54.274;18.578;2023-05-27T01:08:40;10.82;;;4.55;;
35993;SDS011;22066;54.274;18.578;2023-05-27T01:11:10;13.02;;;4.60;;
35993;SDS011;22066;54.274;18.578;2023-05-27T01:13:41;13.07;;;4.55;;
35993;SDS011;22066;54.274;18.578;2023-05-27T01:16:12;10.23;;;3.90;;
35993;SDS011;22066;54.274;18.578;2023-05-27T01:18:42;12.40;;;5.00;;
35993;SDS011;22066;54.274;18.578;2023-05-27T01:21:10;15.47;;;4.90;;
35993;SDS011;22066;54.274;18.578;2023-05-27T01:23:37;11.55;;;4.28;;
35993;SDS011;22066;54.274;18.578;2023-05-27T01:26:05;14.05;;;3.97;;
35993;SDS011;22066;54.274;18.578;2023-05-27T01:28:31;13.52;;;4.78;;
35993;SDS011;22066;54.274;18.578;2023-05-27T01:31:02;15.02;;;4.78;;
35993;SDS011;22066;54.274;18.578;2023-05-27T01:33:32;13.68;;;4.25;;
35993;SDS011;22066;54.274;18.578;2023-05-27T01:36:02;18.90;;;4.50;;
35993;SDS011;22066;54.274;18.578;2023-05-27T01:38:30;15.88;;;4.78;;
35993;SDS011;22066;54.274;18.578;2023-05-27T01:40:58;11.32;;;4.60;;
35993;SDS011;22066;54.274;18.578;2023-05-27T01:43:25;20.33;;;5.47;;
35993;SDS011;22066;54.274;18.578;2023-05-27T01:45:51;12.68;;;4.65;;
35993;SDS011;22066;54.274;18.578;2023-05-27T01:48:17;13.60;;;4.00;;
35993;SDS011;22066;54.274;18.578;2023-05-27T01:50:44;12.43;;;4.75;;
35993;SDS011;22066;54.274;18.578;2023-05-27T01:53:10;14.85;;;4.68;;
35993;SDS011;22066;54.274;18.578;2023-05-27T01:55:36;14.02;;;5.18;;
35993;SDS011;22066;54.274;18.578;2023-05-27T01:58:02;11.37;;;4.00;;
35993;SDS011;22066;54.274;18.578;2023-05-27T02:00:29;13.15;;;4.47;;
35993;SDS011;22066;54.274;18.578;2023-05-27T02:02:55;18.77;;;4.63;;
35993;SDS011;22066;54.274;18.578;2023-05-27T02:05:21;16.57;;;4.50;;
35993;SDS011;22066;54.274;18.578;2023-05-27T02:07:47;17.83;;;4.37;;
35993;SDS011;22066;54.274;18.578;2023-05-27T02:10:13;13.68;;;4.75;;
35993;SDS011;22066;54.274;18.578;2023-05-27T02:12:39;16.00;;;4.72;;
35993;SDS011;22066;54.274;18.578;2023-05-27T02:15:05;13.00;;;4.65;;
35993;SDS011;22066;54.274;18.578;2023-05-27T02:17:31;19.60;;;5.63;;
35993;SDS011;22066;54.274;18.578;2023-05-27T02:19:57;17.77;;;4.97;;
35993;SDS011;22066;54.274;18.578;2023-05-27T02:22:23;13.00;;;5.23;;
35993;SDS011;22066;54.274;18.578;2023-05-27T02:24:49;10.80;;;4.27;;
35993;SDS011;22066;54.274;18.578;2023-05-27T02:27:15;15.97;;;4.80;;
35993;SDS011;22066;54.274;18.578;2023-05-27T02:29:41;14.10;;;3.93;;
35993;SDS011;22066;54.274;18.578;2023-05-27T02:32:07;14.20;;;5.20;;
35993;SDS011;22066;54.274;18.578;2023-05-27T02:34:33;16.80;;;4.50;;
35993;SDS011;22066;54.274;18.578;2023-05-27T02:37:02;12.32;;;5.15;;
35993;SDS011;22066;54.274;18.578;2023-05-27T02:39:29;12.55;;;4.60;;
35993;SDS011;22066;54.274;18.578;2023-05-27T02:41:55;14.02;;;4.85;;
35993;SDS011;22066;54.274;18.578;2023-05-27T02:44:21;14.47;;;5.60;;
35993;SDS011;22066;54.274;18.578;2023-05-27T02:46:47;14.30;;;4.73;;
35993;SDS011;22066;54.274;18.578;2023-05-27T02:49:13;14.67;;;5.30;;
35993;SDS011;22066;54.274;18.578;2023-05-27T02:51:39;16.77;;;5.23;;
35993;SDS011;22066;54.274;18.578;2023-05-27T02:54:05;12.97;;;4.53;;
35993;SDS011;22066;54.274;18.578;2023-05-27T02:56:32;9.20;;;4.10;;
35993;SDS011;22066;54.274;18.578;2023-05-27T02:58:58;14.03;;;5.60;;
35993;SDS011;22066;54.274;18.578;2023-05-27T03:01:24;47.63;;;6.67;;
35993;SDS011;22066;54.274;18.578;2023-05-27T03:03:50;27.50;;;6.23;;
35993;SDS011;22066;54.274;18.578;2023-05-27T03:06:16;14.43;;;4.47;;
35993;SDS011;22066;54.274;18.578;2023-05-27T03:08:42;21.97;;;4.87;;
35993;SDS011;22066;54.274;18.578;2023-05-27T03:11:08;12.03;;;5.00;;
35993;SDS011;22066;54.274;18.578;2023-05-27T03:13:34;16.77;;;4.53;;
35993;SDS011;22066;54.274;18.578;2023-05-27T03:16:00;11.43;;;4.30;;
35993;SDS011;22066;54.274;18.578;2023-05-27T03:18:26;15.23;;;5.23;;
35993;SDS011;22066;54.274;18.578;2023-05-27T03:20:52;17.37;;;5.60;;
35993;SDS011;22066;54.274;18.578;2023-05-27T03:23:18;18.63;;;4.87;;
35993;SDS011;22066;54.274;18.578;2023-05-27T03:25:44;16.90;;;5.07;;
35993;SDS011;22066;54.274;18.578;2023-05-27T03:28:10;11.95;;;4.32;;
35993;SDS011;22066;54.274;18.578;2023-05-27T03:30:36;11.52;;;4.05;;
35993;SDS011;22066;54.274;18.578;2023-05-27T03:33:03;14.00;;;4.55;;
35993;SDS011;22066;54.274;18.578;2023-05-27T03:35:29;14.15;;;4.85;;
35993;SDS011;22066;54.274;18.578;2023-05-27T03:37:55;12.68;;;4.80;;
35993;SDS011;22066;54.274;18.578;2023-05-27T03:40:21;13.63;;;4.70;;
35993;SDS011;22066;54.274;18.578;2023-05-27T03:42:47;16.17;;;4.63;;
35993;SDS011;22066;54.274;18.578;2023-05-27T03:45:13;12.00;;;4.35;;
35993;SDS011;22066;54.274;18.578;2023-05-27T03:47:39;13.27;;;4.28;;
35993;SDS011;22066;54.274;18.578;2023-05-27T03:50:05;15.30;;;5.10;;
35993;SDS011;22066;54.274;18.578;2023-05-27T03:52:31;13.35;;;5.00;;
35993;SDS011;22066;54.274;18.578;2023-05-27T03:54:57;12.50;;;4.65;;
35993;SDS011;22066;54.274;18.578;2023-05-27T03:57:24;15.10;;;4.68;;
35993;SDS011;22066;54.274;18.578;2023-05-27T03:59:50;10.85;;;4.30;;
35993;SDS011;22066;54.274;18.578;2023-05-27T04:02:16;10.45;;;4.97;;
35993;SDS011;22066;54.274;18.578;2023-05-27T04:04:42;15.70;;;4.90;;
35993;SDS011;22066;54.274;18.578;2023-05-27T04:07:08;16.02;;;5.32;;
35993;SDS011;22066;54.274;18.578;2023-05-27T04:09:34;16.02;;;6.38;;
35993;SDS011;22066;54.274;18.578;2023-05-27T04:12:00;20.08;;;5.13;;
35993;SDS011;22066;54.274;18.578;2023-05-27T04:14:26;16.90;;;4.80;;
35993;SDS011;22066;54.274;18.578;2023-05-27T04:16:52;16.70;;;5.00;;
35993;SDS011;22066;54.274;18.578;2023-05-27T04:19:18;14.63;;;5.57;;
35993;SDS011;22066;54.274;18.578;2023-05-27T04:21:45;13.93;;;4.53;;
35993;SDS011;22066;54.274;18.578;2023-05-27T04:24:11;16.23;;;6.00;;
35993;SDS011;22066;54.274;18.578;2023-05-27T04:26:37;18.08;;;5.43;;
35993;SDS011;22066;54.274;18.578;2023-05-27T04:29:05;16.52;;;6.25;;
35993;SDS011;22066;54.274;18.578;2023-05-27T04:31:36;10.55;;;4.30;;
35993;SDS011;22066;54.274;18.578;2023-05-27T04:34:02;12.90;;;4.80;;
35993;SDS011;22066;54.274;18.578;2023-05-27T04:36:29;13.50;;;5.18;;
35993;SDS011;22066;54.274;18.578;2023-05-27T04:38:58;11.15;;;5.05;;
35993;SDS011;22066;54.274;18.578;2023-05-27T04:41:26;7.82;;;4.28;;
35993;SDS011;22066;54.274;18.578;2023-05-27T04:43:53;14.85;;;4.68;;
35993;SDS011;22066;54.274;18.578;2023-05-27T04:46:19;13.95;;;4.70;;
35993;SDS011;22066;54.274;18.578;2023-05-27T04:48:46;13.65;;;4.47;;
35993;SDS011;22066;54.274;18.578;2023-05-27T04:51:12;13.57;;;4.10;;
35993;SDS011;22066;54.274;18.578;2023-05-27T04:53:40;21.75;;;5.13;;
35993;SDS011;22066;54.274;18.578;2023-05-27T04:56:07;12.95;;;4.60;;
35993;SDS011;22066;54.274;18.578;2023-05-27T04:58:34;14.37;;;5.50;;
35993;SDS011;22066;54.274;18.578;2023-05-27T05:01:01;13.13;;;4.28;;
35993;SDS011;22066;54.274;18.578;2023-05-27T05:03:27;13.70;;;4.07;;
35993;SDS011;22066;54.274;18.578;2023-05-27T05:06:04;10.90;;;4.65;;
35993;SDS011;22066;54.274;18.578;2023-05-27T05:08:31;12.38;;;4.22;;
35993;SDS011;22066;54.274;18.578;2023-05-27T05:10:57;10.38;;;5.05;;
35993;SDS011;22066;54.274;18.578;2023-05-27T05:13:23;14.93;;;4.53;;
35993;SDS011;22066;54.274;18.578;2023-05-27T05:15:53;13.43;;;5.10;;
35993;SDS011;22066;54.274;18.578;2023-05-27T05:18:19;12.05;;;4.72;;
35993;SDS011;22066;54.274;18.578;2023-05-27T05:20:45;12.77;;;4.22;;
35993;SDS011;22066;54.274;18.578;2023-05-27T05:23:11;13.32;;;4.70;;
35993;SDS011;22066;54.274;18.578;2023-05-27T05:25:37;13.43;;;4.47;;
35993;SDS011;22066;54.274;18.578;2023-05-27T05:28:04;13.43;;;4.00;;
35993;SDS011;22066;54.274;18.578;2023-05-27T05:30:31;14.98;;;5.20;;
35993;SDS011;22066;54.274;18.578;2023-05-27T05:32:57;11.43;;;4.38;;
35993;SDS011;22066;54.274;18.578;2023-05-27T05:35:23;11.57;;;3.78;;
35993;SDS011;22066;54.274;18.578;2023-05-27T05:37:49;14.35;;;4.03;;
35993;SDS011;22066;54.274;18.578;2023-05-27T05:40:15;9.70;;;3.65;;
35993;SDS011;22066;54.274;18.578;2023-05-27T05:42:41;17.70;;;5.07;;
35993;SDS011;22066;54.274;18.578;2023-05-27T05:45:07;15.15;;;4.07;;
35993;SDS011;22066;54.274;18.578;2023-05-27T05:47:33;15.23;;;4.63;;
35993;SDS011;22066;54.274;18.578;2023-05-27T05:50:00;18.92;;;5.75;;
35993;SDS011;22066;54.274;18.578;2023-05-27T05:52:26;12.68;;;4.07;;
35993;SDS011;22066;54.274;18.578;2023-05-27T05:54:52;13.80;;;4.18;;
35993;SDS011;22066;54.274;18.578;2023-05-27T05:57:18;11.32;;;4.65;;
35993;SDS011;22066;54.274;18.578;2023-05-27T05:59:44;16.67;;;4.30;;
35993;SDS011;22066;54.274;18.578;2023-05-27T06:02:10;10.48;;;3.90;;
35993;SDS011;22066;54.274;18.578;2023-05-27T06:04:36;11.43;;;4.35;;
35993;SDS011;22066;54.274;18.578;2023-05-27T06:07:02;12.52;;;3.67;;
35993;SDS011;22066;54.274;18.578;2023-05-27T06:09:28;9.45;;;2.92;;
35993;SDS011;22066;54.274;18.578;2023-05-27T06:11:54;20.35;;;4.20;;
35993;SDS011;22066;54.274;18.578;2023-05-27T06:14:20;16.70;;;4.32;;
35993;SDS011;22066;54.274;18.578;2023-05-27T06:16:47;14.45;;;3.40;;
35993;SDS011;22066;54.274;18.578;2023-05-27T06:19:13;10.32;;;2.90;;
35993;SDS011;22066;54.274;18.578;2023-05-27T06:21:39;16.08;;;3.30;;
35993;SDS011;22066;54.274;18.578;2023-05-27T06:24:06;26.10;;;3.40;;
35993;SDS011;22066;54.274;18.578;2023-05-27T06:26:32;9.98;;;3.17;;
35993;SDS011;22066;54.274;18.578;2023-05-27T06:28:58;24.88;;;3.45;;
35993;SDS011;22066;54.274;18.578;2023-05-27T06:31:24;10.88;;;2.50;;
35993;SDS011;22066;54.274;18.578;2023-05-27T06:33:52;6.88;;;2.47;;
35993;SDS011;22066;54.274;18.578;2023-05-27T06:36:18;13.40;;;3.13;;
35993;SDS011;22066;54.274;18.578;2023-05-27T06:38:44;7.28;;;2.45;;
35993;SDS011;22066;54.274;18.578;2023-05-27T06:41:10;6.85;;;2.17;;
35993;SDS011;22066;54.274;18.578;2023-05-27T06:43:36;20.25;;;3.92;;
35993;SDS011;22066;54.274;18.578;2023-05-27T06:46:02;21.58;;;2.78;;
35993;SDS011;22066;54.274;18.578;2023-05-27T06:48:28;7.95;;;1.80;;
35993;SDS011;22066;54.274;18.578;2023-05-27T06:50:54;11.07;;;2.08;;
35993;SDS011;22066;54.274;18.578;2023-05-27T06:53:20;6.45;;;2.03;;
35993;SDS011;22066;54.274;18.578;2023-05-27T06:55:46;9.98;;;2.40;;
35993;SDS011;22066;54.274;18.578;2023-05-27T06:58:12;3.55;;;1.30;;
35993;SDS011;22066;54.274;18.578;2023-05-27T07:00:38;5.75;;;1.77;;
35993;SDS011;22066;54.274;18.578;2023-05-27T07:03:04;11.95;;;2.28;;
35993;SDS011;22066;54.274;18.578;2023-05-27T07:05:31;12.98;;;2.65;;
35993;SDS011;22066;54.274;18.578;2023-05-27T07:07:57;14.73;;;2.80;;
35993;SDS011;22066;54.274;18.578;2023-05-27T07:10:23;12.50;;;2.35;;
35993;SDS011;22066;54.274;18.578;2023-05-27T07:12:49;4.43;;;1.60;;
35993;SDS011;22066;54.274;18.578;2023-05-27T07:15:15;8.50;;;2.10;;
35993;SDS011;22066;54.274;18.578;2023-05-27T07:17:41;7.30;;;1.65;;
35993;SDS011;22066;54.274;18.578;2023-05-27T07:20:07;20.48;;;3.15;;
35993;SDS011;22066;54.274;18.578;2023-05-27T07:22:33;6.38;;;1.60;;
35993;SDS011;22066;54.274;18.578;2023-05-27T07:24:59;7.57;;;1.90;;
35993;SDS011;22066;54.274;18.578;2023-05-27T07:27:25;6.72;;;1.52;;
35993;SDS011;22066;54.274;18.578;2023-05-27T07:29:51;16.92;;;2.42;;
35993;SDS011;22066;54.274;18.578;2023-05-27T07:32:18;6.10;;;1.60;;
35993;SDS011;22066;54.274;18.578;2023-05-27T07:34:45;8.73;;;2.67;;
35993;SDS011;22066;54.274;18.578;2023-05-27T07:37:11;5.97;;;1.80;;
35993;SDS011;22066;54.274;18.578;2023-05-27T07:39:37;11.40;;;2.65;;
35993;SDS011;22066;54.274;18.578;2023-05-27T07:42:03;4.88;;;1.27;;
35993;SDS011;22066;54.274;18.578;2023-05-27T07:44:30;5.47;;;1.40;;
35993;SDS011;22066;54.274;18.578;2023-05-27T07:46:56;19.50;;;1.98;;
35993;SDS011;22066;54.274;18.578;2023-05-27T07:49:22;5.85;;;2.72;;
35993;SDS011;22066;54.274;18.578;2023-05-27T07:51:49;4.38;;;1.70;;
35993;SDS011;22066;54.274;18.578;2023-05-27T07:54:16;6.60;;;1.63;;
35993;SDS011;22066;54.274;18.578;2023-05-27T07:56:42;3.20;;;1.40;;
35993;SDS011;22066;54.274;18.578;2023-05-27T07:59:08;5.50;;;1.63;;
35993;SDS011;22066;54.274;18.578;2023-05-27T08:01:34;12.50;;;1.80;;
35993;SDS011;22066;54.274;18.578;2023-05-27T08:04:00;6.35;;;1.42;;
35993;SDS011;22066;54.274;18.578;2023-05-27T08:06:26;4.13;;;1.50;;
35993;SDS011;22066;54.274;18.578;2023-05-27T08:08:52;4.10;;;1.83;;
35993;SDS011;22066;54.274;18.578;2023-05-27T08:11:18;5.88;;;1.60;;
35993;SDS011;22066;54.274;18.578;2023-05-27T08:13:45;5.18;;;1.60;;
35993;SDS011;22066;54.274;18.578;2023-05-27T08:16:11;5.90;;;1.73;;
35993;SDS011;22066;54.274;18.578;2023-05-27T08:18:37;6.97;;;2.33;;
35993;SDS011;22066;54.274;18.578;2023-05-27T08:21:03;3.30;;;1.30;;
35993;SDS011;22066;54.274;18.578;2023-05-27T08:23:29;3.75;;;1.27;;
35993;SDS011;22066;54.274;18.578;2023-05-27T08:25:55;9.35;;;1.73;;
35993;SDS011;22066;54.274;18.578;2023-05-27T08:28:21;5.75;;;1.88;;
35993;SDS011;22066;54.274;18.578;2023-05-27T08:30:48;4.45;;;1.38;;
35993;SDS011;22066;54.274;18.578;2023-05-27T08:33:14;3.85;;;1.15;;
35993;SDS011;22066;54.274;18.578;2023-05-27T08:35:41;4.05;;;1.38;;
35993;SDS011;22066;54.274;18.578;2023-05-27T08:38:07;6.45;;;1.40;;
35993;SDS011;22066;54.274;18.578;2023-05-27T08:40:33;3.22;;;1.00;;
35993;SDS011;22066;54.274;18.578;2023-05-27T08:42:59;4.72;;;1.55;;
35993;SDS011;22066;54.274;18.578;2023-05-27T08:45:25;4.25;;;1.50;;
35993;SDS011;22066;54.274;18.578;2023-05-27T08:47:51;3.78;;;1.20;;
35993;SDS011;22066;54.274;18.578;2023-05-27T08:50:18;23.48;;;2.28;;
35993;SDS011;22066;54.274;18.578;2023-05-27T08:52:45;9.70;;;1.40;;
35993;SDS011;22066;54.274;18.578;2023-05-27T08:55:14;5.45;;;1.23;;
35993;SDS011;22066;54.274;18.578;2023-05-27T08:57:41;4.30;;;1.55;;
35993;SDS011;22066;54.274;18.578;2023-05-27T09:00:10;10.73;;;2.42;;
35993;SDS011;22066;54.274;18.578;2023-05-27T09:02:38;3.30;;;1.55;;
35993;SDS011;22066;54.274;18.578;2023-05-27T09:05:05;5.93;;;1.30;;
35993;SDS011;22066;54.274;18.578;2023-05-27T09:07:31;3.63;;;1.40;;
35993;SDS011;22066;54.274;18.578;2023-05-27T09:09:58;4.18;;;1.50;;
35993;SDS011;22066;54.274;18.578;2023-05-27T09:12:24;3.38;;;1.30;;
35993;SDS011;22066;54.274;18.578;2023-05-27T09:14:51;5.53;;;1.93;;
35993;SDS011;22066;54.274;18.578;2023-05-27T09:17:17;2.93;;;1.20;;
35993;SDS011;22066;54.274;18.578;2023-05-27T09:19:46;6.50;;;1.40;;
35993;SDS011;22066;54.274;18.578;2023-05-27T09:22:27;2.67;;;0.95;;
35993;SDS011;22066;54.274;18.578;2023-05-27T09:24:54;3.38;;;1.25;;
35993;SDS011;22066;54.274;18.578;2023-05-27T09:27:28;4.88;;;1.63;;
35993;SDS011;22066;54.274;18.578;2023-05-27T09:29:55;4.07;;;1.45;;
35993;SDS011;22066;54.274;18.578;2023-05-27T09:32:25;6.03;;;1.50;;
35993;SDS011;22066;54.274;18.578;2023-05-27T09:34:52;3.17;;;1.25;;
35993;SDS011;22066;54.274;18.578;2023-05-27T09:37:18;6.47;;;2.00;;
35993;SDS011;22066;54.274;18.578;2023-05-27T09:39:46;7.47;;;1.48;;
35993;SDS011;22066;54.274;18.578;2023-05-27T09:42:13;3.92;;;1.40;;
35993;SDS011;22066;54.274;18.578;2023-05-27T09:44:39;25.77;;;3.53;;
35993;SDS011;22066;54.274;18.578;2023-05-27T09:47:06;6.10;;;1.38;;
35993;SDS011;22066;54.274;18.578;2023-05-27T09:49:34;2.53;;;1.10;;
35993;SDS011;22066;54.274;18.578;2023-05-27T09:52:03;3.25;;;1.30;;
35993;SDS011;22066;54.274;18.578;2023-05-27T09:54:29;2.72;;;1.25;;
35993;SDS011;22066;54.274;18.578;2023-05-27T09:56:56;4.40;;;1.63;;
35993;SDS011;22066;54.274;18.578;2023-05-27T09:59:22;4.43;;;1.67;;
35993;SDS011;22066;54.274;18.578;2023-05-27T10:01:48;2.88;;;1.30;;
35993;SDS011;22066;54.274;18.578;2023-05-27T10:06:42;6.43;;;1.90;;
35993;SDS011;22066;54.274;18.578;2023-05-27T10:09:10;11.32;;;1.42;;
35993;SDS011;22066;54.274;18.578;2023-05-27T10:11:38;3.65;;;1.20;;
35993;SDS011;22066;54.274;18.578;2023-05-27T10:16:31;2.47;;;1.02;;
35993;SDS011;22066;54.274;18.578;2023-05-27T10:18:58;2.30;;;1.13;;
35993;SDS011;22066;54.274;18.578;2023-05-27T10:21:26;7.90;;;2.28;;
35993;SDS011;22066;54.274;18.578;2023-05-27T10:23:55;3.00;;;1.50;;
35993;SDS011;22066;54.274;18.578;2023-05-27T10:26:31;3.55;;;1.40;;
35993;SDS011;22066;54.274;18.578;2023-05-27T10:29:04;3.40;;;1.20;;
35993;SDS011;22066;54.274;18.578;2023-05-27T10:31:30;49.50;;;9.20;;
35993;SDS011;22066;54.274;18.578;2023-05-27T10:33:57;8.43;;;3.10;;
35993;SDS011;22066;54.274;18.578;2023-05-27T10:36:25;4.47;;;1.20;;
35993;SDS011;22066;54.274;18.578;2023-05-27T10:38:57;3.80;;;1.30;;
35993;SDS011;22066;54.274;18.578;2023-05-27T10:41:24;13.93;;;2.60;;
35993;SDS011;22066;54.274;18.578;2023-05-27T10:43:56;3.78;;;1.30;;
35993;SDS011;22066;54.274;18.578;2023-05-27T10:46:23;4.03;;;1.33;;
35993;SDS011;22066;54.274;18.578;2023-05-27T10:48:49;3.60;;;1.27;;
35993;SDS011;22066;54.274;18.578;2023-05-27T10:51:15;3.55;;;1.40;;
35993;SDS011;22066;54.274;18.578;2023-05-27T10:53:41;11.77;;;2.03;;
35993;SDS011;22066;54.274;18.578;2023-05-27T10:56:07;2.70;;;1.08;;
35993;SDS011;22066;54.274;18.578;2023-05-27T10:58:37;6.15;;;1.55;;
35993;SDS011;22066;54.274;18.578;2023-05-27T11:01:13;1.98;;;0.65;;
35993;SDS011;22066;54.274;18.578;2023-05-27T11:03:43;4.47;;;1.00;;
35993;SDS011;22066;54.274;18.578;2023-05-27T11:06:10;1.85;;;0.80;;
35993;SDS011;22066;54.274;18.578;2023-05-27T11:08:36;1.75;;;0.82;;
35993;SDS011;22066;54.274;18.578;2023-05-27T11:11:06;2.67;;;1.00;;
35993;SDS011;22066;54.274;18.578;2023-05-27T11:13:39;2.20;;;1.00;;
35993;SDS011;22066;54.274;18.578;2023-05-27T11:16:06;2.17;;;0.80;;
35993;SDS011;22066;54.274;18.578;2023-05-27T11:21:08;3.20;;;1.10;;
35993;SDS011;22066;54.274;18.578;2023-05-27T11:23:38;1.30;;;0.80;;
35993;SDS011;22066;54.274;18.578;2023-05-27T11:26:18;1.73;;;0.90;;
35993;SDS011;22066;54.274;18.578;2023-05-27T11:31:14;2.10;;;0.82;;
35993;SDS011;22066;54.274;18.578;2023-05-27T11:33:41;1.70;;;0.88;;
35993;SDS011;22066;54.274;18.578;2023-05-27T11:36:11;3.08;;;0.90;;
35993;SDS011;22066;54.274;18.578;2023-05-27T11:41:12;1.98;;;0.90;;
35993;SDS011;22066;54.274;18.578;2023-05-27T11:43:48;2.20;;;0.63;;
35993;SDS011;22066;54.274;18.578;2023-05-27T11:46:15;4.40;;;1.25;;
35993;SDS011;22066;54.274;18.578;2023-05-27T11:48:41;1.83;;;0.85;;
35993;SDS011;22066;54.274;18.578;2023-05-27T11:51:07;1.75;;;0.88;;
35993;SDS011;22066;54.274;18.578;2023-05-27T11:53:35;2.10;;;1.27;;
35993;SDS011;22066;54.274;18.578;2023-05-27T11:56:01;4.45;;;1.33;;
35993;SDS011;22066;54.274;18.578;2023-05-27T11:58:27;7.25;;;0.95;;
35993;SDS011;22066;54.274;18.578;2023-05-27T12:00:53;1.52;;;0.80;;
35993;SDS011;22066;54.274;18.578;2023-05-27T12:03:19;1.65;;;0.90;;
35993;SDS011;22066;54.274;18.578;2023-05-27T12:05:45;1.30;;;0.77;;
35993;SDS011;22066;54.274;18.578;2023-05-27T12:08:11;2.55;;;1.27;;
35993;SDS011;22066;54.274;18.578;2023-05-27T12:10:37;4.43;;;0.93;;
35993;SDS011;22066;54.274;18.578;2023-05-27T12:13:04;2.20;;;0.75;;
35993;SDS011;22066;54.274;18.578;2023-05-27T12:15:30;2.90;;;1.10;;
35993;SDS011;22066;54.274;18.578;2023-05-27T12:17:57;2.15;;;0.90;;
35993;SDS011;22066;54.274;18.578;2023-05-27T12:20:23;2.50;;;1.10;;
35993;SDS011;22066;54.274;18.578;2023-05-27T12:22:52;2.33;;;0.90;;
35993;SDS011;22066;54.274;18.578;2023-05-27T12:25:19;4.82;;;1.10;;
35993;SDS011;22066;54.274;18.578;2023-05-27T12:27:45;2.17;;;0.80;;
35993;SDS011;22066;54.274;18.578;2023-05-27T12:30:11;2.40;;;0.75;;
35993;SDS011;22066;54.274;18.578;2023-05-27T12:32:38;1.98;;;0.90;;
35993;SDS011;22066;54.274;18.578;2023-05-27T12:35:05;3.53;;;0.90;;
35993;SDS011;22066;54.274;18.578;2023-05-27T12:37:31;3.83;;;1.27;;
35993;SDS011;22066;54.274;18.578;2023-05-27T12:39:57;2.67;;;0.80;;
35993;SDS011;22066;54.274;18.578;2023-05-27T12:42:23;1.75;;;0.80;;
35993;SDS011;22066;54.274;18.578;2023-05-27T12:44:49;2.25;;;0.75;;
35993;SDS011;22066;54.274;18.578;2023-05-27T12:47:15;3.17;;;0.93;;
35993;SDS011;22066;54.274;18.578;2023-05-27T12:49:41;2.53;;;1.05;;
35993;SDS011;22066;54.274;18.578;2023-05-27T12:52:08;4.40;;;1.80;;
35993;SDS011;22066;54.274;18.578;2023-05-27T12:54:34;2.08;;;1.02;;
35993;SDS011;22066;54.274;18.578;2023-05-27T12:57:00;3.70;;;1.13;;
35993;SDS011;22066;54.274;18.578;2023-05-27T12:59:30;3.10;;;1.17;;
35993;SDS011;22066;54.274;18.578;2023-05-27T13:01:56;5.18;;;0.95;;
35993;SDS011;22066;54.274;18.578;2023-05-27T13:04:22;2.13;;;0.90;;
35993;SDS011;22066;54.274;18.578;2023-05-27T13:06:48;4.40;;;1.15;;
35993;SDS011;22066;54.274;18.578;2023-05-27T13:09:14;2.45;;;0.73;;
35993;SDS011;22066;54.274;18.578;2023-05-27T13:11:41;2.13;;;0.93;;
35993;SDS011;22066;54.274;18.578;2023-05-27T13:14:07;4.82;;;1.40;;
35993;SDS011;22066;54.274;18.578;2023-05-27T13:16:33;5.15;;;1.00;;
35993;SDS011;22066;54.274;18.578;2023-05-27T13:18:59;1.65;;;0.82;;
35993;SDS011;22066;54.274;18.578;2023-05-27T13:21:25;3.30;;;0.90;;
35993;SDS011;22066;54.274;18.578;2023-05-27T13:23:52;3.53;;;0.80;;
35993;SDS011;22066;54.274;18.578;2023-05-27T13:26:18;2.53;;;0.73;;
35993;SDS011;22066;54.274;18.578;2023-05-27T13:28:45;2.28;;;0.80;;
35993;SDS011;22066;54.274;18.578;2023-05-27T13:31:11;3.35;;;1.00;;
35993;SDS011;22066;54.274;18.578;2023-05-27T13:33:39;3.38;;;1.00;;
35993;SDS011;22066;54.274;18.578;2023-05-27T13:36:05;6.40;;;1.00;;
35993;SDS011;22066;54.274;18.578;2023-05-27T13:38:31;3.28;;;1.10;;
35993;SDS011;22066;54.274;18.578;2023-05-27T13:40:58;2.47;;;0.90;;
35993;SDS011;22066;54.274;18.578;2023-05-27T13:43:27;5.72;;;0.80;;
35993;SDS011;22066;54.274;18.578;2023-05-27T13:45:53;5.20;;;1.05;;
35993;SDS011;22066;54.274;18.578;2023-05-27T13:48:19;4.93;;;0.82;;
35993;SDS011;22066;54.274;18.578;2023-05-27T13:50:45;3.30;;;1.00;;
35993;SDS011;22066;54.274;18.578;2023-05-27T13:53:11;3.90;;;1.00;;
35993;SDS011;22066;54.274;18.578;2023-05-27T13:55:37;2.88;;;1.40;;
35993;SDS011;22066;54.274;18.578;2023-05-27T13:58:03;2.15;;;0.90;;
35993;SDS011;22066;54.274;18.578;2023-05-27T14:00:29;2.47;;;0.80;;
35993;SDS011;22066;54.274;18.578;2023-05-27T14:02:56;1.98;;;0.90;;
35993;SDS011;22066;54.274;18.578;2023-05-27T14:07:51;2.97;;;0.90;;
35993;SDS011;22066;54.274;18.578;2023-05-27T14:10:17;2.63;;;1.27;;
35993;SDS011;22066;54.274;18.578;2023-05-27T14:12:43;2.15;;;0.90;;
35993;SDS011;22066;54.274;18.578;2023-05-27T14:15:11;4.50;;;1.10;;
35993;SDS011;22066;54.274;18.578;2023-05-27T14:17:37;1.92;;;0.90;;
35993;SDS011;22066;54.274;18.578;2023-05-27T14:20:04;1.75;;;0.93;;
35993;SDS011;22066;54.274;18.578;2023-05-27T14:22:39;3.20;;;0.90;;
35993;SDS011;22066;54.274;18.578;2023-05-27T14:25:07;1.52;;;0.80;;
35993;SDS011;22066;54.274;18.578;2023-05-27T14:27:33;6.20;;;1.75;;
35993;SDS011;22066;54.274;18.578;2023-05-27T14:29:59;4.22;;;0.88;;
35993;SDS011;22066;54.274;18.578;2023-05-27T14:32:25;3.28;;;1.40;;
35993;SDS011;22066;54.274;18.578;2023-05-27T14:34:51;2.10;;;1.00;;
35993;SDS011;22066;54.274;18.578;2023-05-27T14:37:17;1.90;;;0.90;;
35993;SDS011;22066;54.274;18.578;2023-05-27T14:39:43;4.78;;;1.10;;
35993;SDS011;22066;54.274;18.578;2023-05-27T14:42:09;1.95;;;0.60;;